sensor_id;sensor_type;location;lat;lon;timestamp;P1;durP1;ratioP1;P2;durP2;ratioP2
41861;SDS011;27537;57.134;-2.136;2022-09-09T00:07:51;26.85;;;7.45;;
41861;SDS011;27537;57.134;-2.136;2022-09-09T00:21:12;24.70;;;6.20;;
41861;SDS011;27537;57.134;-2.136;2022-09-09T00:26:20;20.67;;;4.65;;
41861;SDS011;27537;57.134;-2.136;2022-09-09T00:31:38;22.17;;;4.75;;
41861;SDS011;27537;57.134;-2.136;2022-09-09T00:36:40;22.15;;;5.78;;
41861;SDS011;27537;57.134;-2.136;2022-09-09T00:39:09;23.92;;;5.15;;
41861;SDS011;27537;57.134;-2.136;2022-09-09T00:44:36;20.35;;;5.85;;
41861;SDS011;27537;57.134;-2.136;2022-09-09T00:50:25;28.02;;;6.50;;
41861;SDS011;27537;57.134;-2.136;2022-09-09T00:58:14;38.13;;;8.30;;
41861;SDS011;27537;57.134;-2.136;2022-09-09T01:00:43;38.35;;;6.45;;
41861;SDS011;27537;57.134;-2.136;2022-09-09T01:06:12;33.60;;;6.68;;
41861;SDS011;27537;57.134;-2.136;2022-09-09T01:11:32;36.63;;;6.82;;
41861;SDS011;27537;57.134;-2.136;2022-09-09T01:14:13;39.10;;;8.23;;
41861;SDS011;27537;57.134;-2.136;2022-09-09T01:20:02;31.20;;;7.88;;
41861;SDS011;27537;57.134;-2.136;2022-09-09T01:27:40;32.60;;;7.05;;
41861;SDS011;27537;57.134;-2.136;2022-09-09T01:30:10;40.40;;;8.73;;
41861;SDS011;27537;57.134;-2.136;2022-09-09T01:32:46;36.88;;;8.20;;
41861;SDS011;27537;57.134;-2.136;2022-09-09T01:37:54;36.88;;;8.57;;
41861;SDS011;27537;57.134;-2.136;2022-09-09T01:40:21;32.78;;;6.65;;
41861;SDS011;27537;57.134;-2.136;2022-09-09T01:42:48;37.50;;;8.38;;
41861;SDS011;27537;57.134;-2.136;2022-09-09T01:45:15;34.15;;;7.85;;
41861;SDS011;27537;57.134;-2.136;2022-09-09T01:47:41;25.40;;;7.40;;
41861;SDS011;27537;57.134;-2.136;2022-09-09T01:50:09;27.90;;;6.88;;
41861;SDS011;27537;57.134;-2.136;2022-09-09T01:52:39;27.50;;;6.18;;
41861;SDS011;27537;57.134;-2.136;2022-09-09T01:55:08;21.23;;;5.63;;
41861;SDS011;27537;57.134;-2.136;2022-09-09T01:57:41;33.40;;;7.22;;
41861;SDS011;27537;57.134;-2.136;2022-09-09T02:00:16;46.38;;;7.28;;
41861;SDS011;27537;57.134;-2.136;2022-09-09T02:08:15;29.02;;;6.97;;
41861;SDS011;27537;57.134;-2.136;2022-09-09T02:11:06;27.45;;;5.70;;
41861;SDS011;27537;57.134;-2.136;2022-09-09T02:13:39;29.30;;;7.30;;
41861;SDS011;27537;57.134;-2.136;2022-09-09T02:18:46;19.13;;;5.05;;
41861;SDS011;27537;57.134;-2.136;2022-09-09T02:21:14;25.92;;;5.20;;
41861;SDS011;27537;57.134;-2.136;2022-09-09T02:23:43;31.90;;;5.53;;
41861;SDS011;27537;57.134;-2.136;2022-09-09T02:26:13;22.88;;;4.63;;
41861;SDS011;27537;57.134;-2.136;2022-09-09T02:28:47;23.23;;;4.88;;
41861;SDS011;27537;57.134;-2.136;2022-09-09T02:31:19;22.95;;;4.38;;
41861;SDS011;27537;57.134;-2.136;2022-09-09T02:33:51;27.73;;;4.30;;
41861;SDS011;27537;57.134;-2.136;2022-09-09T02:36:20;20.60;;;4.53;;
41861;SDS011;27537;57.134;-2.136;2022-09-09T02:38:49;30.77;;;5.20;;
41861;SDS011;27537;57.134;-2.136;2022-09-09T02:41:20;36.72;;;6.05;;
41861;SDS011;27537;57.134;-2.136;2022-09-09T02:43:54;27.25;;;5.75;;
41861;SDS011;27537;57.134;-2.136;2022-09-09T02:48:59;29.65;;;5.13;;
41861;SDS011;27537;57.134;-2.136;2022-09-09T02:56:45;30.45;;;7.25;;
41861;SDS011;27537;57.134;-2.136;2022-09-09T02:59:18;18.15;;;4.63;;
41861;SDS011;27537;57.134;-2.136;2022-09-09T03:01:45;23.50;;;5.95;;
41861;SDS011;27537;57.134;-2.136;2022-09-09T03:04:11;25.50;;;5.28;;
41861;SDS011;27537;57.134;-2.136;2022-09-09T03:06:38;33.00;;;6.25;;
41861;SDS011;27537;57.134;-2.136;2022-09-09T03:09:05;26.02;;;5.45;;
41861;SDS011;27537;57.134;-2.136;2022-09-09T03:11:31;37.50;;;7.30;;
41861;SDS011;27537;57.134;-2.136;2022-09-09T03:13:58;36.42;;;7.10;;
41861;SDS011;27537;57.134;-2.136;2022-09-09T03:16:25;33.75;;;6.47;;
41861;SDS011;27537;57.134;-2.136;2022-09-09T03:18:51;45.20;;;8.70;;
41861;SDS011;27537;57.134;-2.136;2022-09-09T03:21:18;37.60;;;9.50;;
41861;SDS011;27537;57.134;-2.136;2022-09-09T03:23:45;37.38;;;7.53;;
41861;SDS011;27537;57.134;-2.136;2022-09-09T03:26:12;29.75;;;6.72;;
41861;SDS011;27537;57.134;-2.136;2022-09-09T03:28:41;26.50;;;5.75;;
41861;SDS011;27537;57.134;-2.136;2022-09-09T03:31:09;31.13;;;7.25;;
41861;SDS011;27537;57.134;-2.136;2022-09-09T03:33:37;32.25;;;6.10;;
41861;SDS011;27537;57.134;-2.136;2022-09-09T03:36:05;35.63;;;7.22;;
41861;SDS011;27537;57.134;-2.136;2022-09-09T03:38:33;35.58;;;7.22;;
41861;SDS011;27537;57.134;-2.136;2022-09-09T03:41:01;28.95;;;5.28;;
41861;SDS011;27537;57.134;-2.136;2022-09-09T03:43:28;31.67;;;6.20;;
41861;SDS011;27537;57.134;-2.136;2022-09-09T03:45:55;37.75;;;8.63;;
41861;SDS011;27537;57.134;-2.136;2022-09-09T03:48:26;34.17;;;7.68;;
41861;SDS011;27537;57.134;-2.136;2022-09-09T03:50:54;36.65;;;6.95;;
41861;SDS011;27537;57.134;-2.136;2022-09-09T03:53:24;30.10;;;8.25;;
41861;SDS011;27537;57.134;-2.136;2022-09-09T03:55:52;28.52;;;6.38;;
41861;SDS011;27537;57.134;-2.136;2022-09-09T03:58:21;34.17;;;6.28;;
41861;SDS011;27537;57.134;-2.136;2022-09-09T04:00:57;29.77;;;6.57;;
41861;SDS011;27537;57.134;-2.136;2022-09-09T04:03:25;20.38;;;5.00;;
41861;SDS011;27537;57.134;-2.136;2022-09-09T04:05:54;29.83;;;6.63;;
41861;SDS011;27537;57.134;-2.136;2022-09-09T04:08:22;22.13;;;5.57;;
41861;SDS011;27537;57.134;-2.136;2022-09-09T04:10:52;21.95;;;5.05;;
41861;SDS011;27537;57.134;-2.136;2022-09-09T04:13:19;25.77;;;4.97;;
41861;SDS011;27537;57.134;-2.136;2022-09-09T04:15:56;19.70;;;4.78;;
41861;SDS011;27537;57.134;-2.136;2022-09-09T04:18:24;22.25;;;3.70;;
41861;SDS011;27537;57.134;-2.136;2022-09-09T04:20:52;20.35;;;4.78;;
41861;SDS011;27537;57.134;-2.136;2022-09-09T04:23:19;17.40;;;4.32;;
41861;SDS011;27537;57.134;-2.136;2022-09-09T04:25:47;17.50;;;3.97;;
41861;SDS011;27537;57.134;-2.136;2022-09-09T04:28:15;18.33;;;4.20;;
41861;SDS011;27537;57.134;-2.136;2022-09-09T04:30:43;25.70;;;5.70;;
41861;SDS011;27537;57.134;-2.136;2022-09-09T04:33:11;18.20;;;4.20;;
41861;SDS011;27537;57.134;-2.136;2022-09-09T04:35:39;19.95;;;4.60;;
41861;SDS011;27537;57.134;-2.136;2022-09-09T04:38:10;21.05;;;4.95;;
41861;SDS011;27537;57.134;-2.136;2022-09-09T04:40:37;19.80;;;4.72;;
41861;SDS011;27537;57.134;-2.136;2022-09-09T04:43:07;20.95;;;4.50;;
41861;SDS011;27537;57.134;-2.136;2022-09-09T04:45:39;17.48;;;4.07;;
41861;SDS011;27537;57.134;-2.136;2022-09-09T04:48:06;25.42;;;6.25;;
41861;SDS011;27537;57.134;-2.136;2022-09-09T04:50:34;27.67;;;5.85;;
41861;SDS011;27537;57.134;-2.136;2022-09-09T04:53:04;29.33;;;6.93;;
41861;SDS011;27537;57.134;-2.136;2022-09-09T04:55:31;27.80;;;5.88;;
41861;SDS011;27537;57.134;-2.136;2022-09-09T04:58:03;25.08;;;6.03;;
41861;SDS011;27537;57.134;-2.136;2022-09-09T05:00:33;25.02;;;5.88;;
41861;SDS011;27537;57.134;-2.136;2022-09-09T05:03:03;20.20;;;3.67;;
41861;SDS011;27537;57.134;-2.136;2022-09-09T05:05:31;16.67;;;4.65;;
41861;SDS011;27537;57.134;-2.136;2022-09-09T05:08:03;19.33;;;4.97;;
41861;SDS011;27537;57.134;-2.136;2022-09-09T05:10:32;24.02;;;5.15;;
41861;SDS011;27537;57.134;-2.136;2022-09-09T05:12:59;19.20;;;5.28;;
41861;SDS011;27537;57.134;-2.136;2022-09-09T05:15:26;28.90;;;6.57;;
41861;SDS011;27537;57.134;-2.136;2022-09-09T05:17:56;26.90;;;4.72;;
41861;SDS011;27537;57.134;-2.136;2022-09-09T05:20:27;24.98;;;5.00;;
41861;SDS011;27537;57.134;-2.136;2022-09-09T05:22:54;28.08;;;5.07;;
41861;SDS011;27537;57.134;-2.136;2022-09-09T05:25:22;32.72;;;6.75;;
41861;SDS011;27537;57.134;-2.136;2022-09-09T05:27:52;30.30;;;6.47;;
41861;SDS011;27537;57.134;-2.136;2022-09-09T05:30:20;34.38;;;6.03;;
41861;SDS011;27537;57.134;-2.136;2022-09-09T05:32:49;28.60;;;6.45;;
41861;SDS011;27537;57.134;-2.136;2022-09-09T05:35:16;28.48;;;6.07;;
41861;SDS011;27537;57.134;-2.136;2022-09-09T05:37:45;24.00;;;5.43;;
41861;SDS011;27537;57.134;-2.136;2022-09-09T05:40:12;29.02;;;5.53;;
41861;SDS011;27537;57.134;-2.136;2022-09-09T05:42:39;32.22;;;7.22;;
41861;SDS011;27537;57.134;-2.136;2022-09-09T05:45:20;30.08;;;7.45;;
41861;SDS011;27537;57.134;-2.136;2022-09-09T05:48:01;26.52;;;4.97;;
41861;SDS011;27537;57.134;-2.136;2022-09-09T05:50:42;28.40;;;6.05;;
41861;SDS011;27537;57.134;-2.136;2022-09-09T05:53:25;34.73;;;6.90;;
41861;SDS011;27537;57.134;-2.136;2022-09-09T05:55:59;31.70;;;6.55;;
41861;SDS011;27537;57.134;-2.136;2022-09-09T05:58:26;26.77;;;5.80;;
41861;SDS011;27537;57.134;-2.136;2022-09-09T06:00:59;23.08;;;5.30;;
41861;SDS011;27537;57.134;-2.136;2022-09-09T06:03:37;32.60;;;6.55;;
41861;SDS011;27537;57.134;-2.136;2022-09-09T06:06:06;28.33;;;6.25;;
41861;SDS011;27537;57.134;-2.136;2022-09-09T06:08:35;46.15;;;9.00;;
41861;SDS011;27537;57.134;-2.136;2022-09-09T06:11:07;25.48;;;6.00;;
41861;SDS011;27537;57.134;-2.136;2022-09-09T06:13:35;34.28;;;7.63;;
41861;SDS011;27537;57.134;-2.136;2022-09-09T06:16:08;36.13;;;7.88;;
41861;SDS011;27537;57.134;-2.136;2022-09-09T06:18:38;35.25;;;6.43;;
41861;SDS011;27537;57.134;-2.136;2022-09-09T06:21:07;40.25;;;8.52;;
41861;SDS011;27537;57.134;-2.136;2022-09-09T06:23:39;29.07;;;6.47;;
41861;SDS011;27537;57.134;-2.136;2022-09-09T06:28:37;31.70;;;6.60;;
41861;SDS011;27537;57.134;-2.136;2022-09-09T06:31:06;36.10;;;8.55;;
41861;SDS011;27537;57.134;-2.136;2022-09-09T06:33:35;37.35;;;6.93;;
41861;SDS011;27537;57.134;-2.136;2022-09-09T06:36:16;36.40;;;7.13;;
41861;SDS011;27537;57.134;-2.136;2022-09-09T06:38:45;34.15;;;7.20;;
41861;SDS011;27537;57.134;-2.136;2022-09-09T06:41:13;34.58;;;6.55;;
41861;SDS011;27537;57.134;-2.136;2022-09-09T06:43:43;35.38;;;8.35;;
41861;SDS011;27537;57.134;-2.136;2022-09-09T06:46:11;25.50;;;6.50;;
41861;SDS011;27537;57.134;-2.136;2022-09-09T06:48:53;38.38;;;8.20;;
41861;SDS011;27537;57.134;-2.136;2022-09-09T06:51:39;29.10;;;6.93;;
41861;SDS011;27537;57.134;-2.136;2022-09-09T06:54:24;30.23;;;7.72;;
41861;SDS011;27537;57.134;-2.136;2022-09-09T06:57:05;34.03;;;7.00;;
41861;SDS011;27537;57.134;-2.136;2022-09-09T06:59:47;34.35;;;6.53;;
41861;SDS011;27537;57.134;-2.136;2022-09-09T07:02:28;33.95;;;6.90;;
41861;SDS011;27537;57.134;-2.136;2022-09-09T07:05:08;25.23;;;6.22;;
41861;SDS011;27537;57.134;-2.136;2022-09-09T07:07:50;28.95;;;6.05;;
41861;SDS011;27537;57.134;-2.136;2022-09-09T07:10:31;37.10;;;7.32;;
41861;SDS011;27537;57.134;-2.136;2022-09-09T07:13:14;30.08;;;6.60;;
41861;SDS011;27537;57.134;-2.136;2022-09-09T07:15:55;37.55;;;7.90;;
41861;SDS011;27537;57.134;-2.136;2022-09-09T07:18:47;34.65;;;7.32;;
41861;SDS011;27537;57.134;-2.136;2022-09-09T07:21:28;26.73;;;6.65;;
41861;SDS011;27537;57.134;-2.136;2022-09-09T07:24:10;24.20;;;6.75;;
41861;SDS011;27537;57.134;-2.136;2022-09-09T07:26:51;29.10;;;5.90;;
41861;SDS011;27537;57.134;-2.136;2022-09-09T07:29:32;33.50;;;6.70;;
41861;SDS011;27537;57.134;-2.136;2022-09-09T07:32:13;24.70;;;6.25;;
41861;SDS011;27537;57.134;-2.136;2022-09-09T07:34:53;26.52;;;6.32;;
41861;SDS011;27537;57.134;-2.136;2022-09-09T07:37:35;27.33;;;6.47;;
41861;SDS011;27537;57.134;-2.136;2022-09-09T07:40:17;31.45;;;6.53;;
41861;SDS011;27537;57.134;-2.136;2022-09-09T07:42:58;44.15;;;7.97;;
41861;SDS011;27537;57.134;-2.136;2022-09-09T07:45:39;31.30;;;6.82;;
41861;SDS011;27537;57.134;-2.136;2022-09-09T07:48:20;29.38;;;6.32;;
41861;SDS011;27537;57.134;-2.136;2022-09-09T07:53:54;26.80;;;6.22;;
41861;SDS011;27537;57.134;-2.136;2022-09-09T07:56:40;33.95;;;6.75;;
41861;SDS011;27537;57.134;-2.136;2022-09-09T07:59:21;29.50;;;5.95;;
41861;SDS011;27537;57.134;-2.136;2022-09-09T08:02:01;33.05;;;5.57;;
41861;SDS011;27537;57.134;-2.136;2022-09-09T08:04:42;27.13;;;5.78;;
41861;SDS011;27537;57.134;-2.136;2022-09-09T08:07:09;26.35;;;5.82;;
41861;SDS011;27537;57.134;-2.136;2022-09-09T08:09:50;30.02;;;6.18;;
41861;SDS011;27537;57.134;-2.136;2022-09-09T08:12:26;29.65;;;6.05;;
41861;SDS011;27537;57.134;-2.136;2022-09-09T08:15:07;26.25;;;6.28;;
41861;SDS011;27537;57.134;-2.136;2022-09-09T08:17:48;23.63;;;6.32;;
41861;SDS011;27537;57.134;-2.136;2022-09-09T08:20:28;26.00;;;5.15;;
41861;SDS011;27537;57.134;-2.136;2022-09-09T08:23:10;28.73;;;6.47;;
41861;SDS011;27537;57.134;-2.136;2022-09-09T08:25:50;29.13;;;5.55;;
41861;SDS011;27537;57.134;-2.136;2022-09-09T08:28:31;29.02;;;6.07;;
41861;SDS011;27537;57.134;-2.136;2022-09-09T08:31:04;23.88;;;4.95;;
41861;SDS011;27537;57.134;-2.136;2022-09-09T08:33:56;34.10;;;6.68;;
41861;SDS011;27537;57.134;-2.136;2022-09-09T08:36:40;24.40;;;6.32;;
41861;SDS011;27537;57.134;-2.136;2022-09-09T08:39:22;31.48;;;6.55;;
41861;SDS011;27537;57.134;-2.136;2022-09-09T08:42:22;22.83;;;4.45;;
41861;SDS011;27537;57.134;-2.136;2022-09-09T08:45:17;21.80;;;5.15;;
41861;SDS011;27537;57.134;-2.136;2022-09-09T08:48:09;24.17;;;5.78;;
41861;SDS011;27537;57.134;-2.136;2022-09-09T08:51:00;23.08;;;5.18;;
41861;SDS011;27537;57.134;-2.136;2022-09-09T08:53:44;28.33;;;5.97;;
41861;SDS011;27537;57.134;-2.136;2022-09-09T08:56:28;19.20;;;4.13;;
41861;SDS011;27537;57.134;-2.136;2022-09-09T08:59:12;23.63;;;4.90;;
41861;SDS011;27537;57.134;-2.136;2022-09-09T09:02:00;22.63;;;4.57;;
41861;SDS011;27537;57.134;-2.136;2022-09-09T09:10:50;20.85;;;4.95;;
41861;SDS011;27537;57.134;-2.136;2022-09-09T09:16:25;23.50;;;5.68;;
41861;SDS011;27537;57.134;-2.136;2022-09-09T09:19:28;18.85;;;5.15;;
41861;SDS011;27537;57.134;-2.136;2022-09-09T09:25:14;20.50;;;4.13;;
41861;SDS011;27537;57.134;-2.136;2022-09-09T09:28:02;17.80;;;4.30;;
41861;SDS011;27537;57.134;-2.136;2022-09-09T09:31:07;18.52;;;4.45;;
41861;SDS011;27537;57.134;-2.136;2022-09-09T09:33:51;24.27;;;5.25;;
41861;SDS011;27537;57.134;-2.136;2022-09-09T09:36:34;21.27;;;4.43;;
41861;SDS011;27537;57.134;-2.136;2022-09-09T09:39:26;16.15;;;3.70;;
41861;SDS011;27537;57.134;-2.136;2022-09-09T09:42:17;28.38;;;4.70;;
41861;SDS011;27537;57.134;-2.136;2022-09-09T09:45:16;19.70;;;4.00;;
41861;SDS011;27537;57.134;-2.136;2022-09-09T09:48:01;21.30;;;4.90;;
41861;SDS011;27537;57.134;-2.136;2022-09-09T09:51:03;24.00;;;5.70;;
41861;SDS011;27537;57.134;-2.136;2022-09-09T09:53:50;24.73;;;4.82;;
41861;SDS011;27537;57.134;-2.136;2022-09-09T09:56:33;19.73;;;4.22;;
41861;SDS011;27537;57.134;-2.136;2022-09-09T10:02:22;20.02;;;4.28;;
41861;SDS011;27537;57.134;-2.136;2022-09-09T10:05:15;19.75;;;4.85;;
41861;SDS011;27537;57.134;-2.136;2022-09-09T10:08:10;23.50;;;4.70;;
41861;SDS011;27537;57.134;-2.136;2022-09-09T10:19:20;25.87;;;3.50;;
41861;SDS011;27537;57.134;-2.136;2022-09-09T10:22:10;21.75;;;4.25;;
41861;SDS011;27537;57.134;-2.136;2022-09-09T10:28:24;20.70;;;3.83;;
41861;SDS011;27537;57.134;-2.136;2022-09-09T10:31:11;17.58;;;3.85;;
41861;SDS011;27537;57.134;-2.136;2022-09-09T10:34:12;23.83;;;5.00;;
41861;SDS011;27537;57.134;-2.136;2022-09-09T10:37:20;24.90;;;4.63;;
41861;SDS011;27537;57.134;-2.136;2022-09-09T10:40:38;23.38;;;4.63;;
41861;SDS011;27537;57.134;-2.136;2022-09-09T10:46:36;18.95;;;3.70;;
41861;SDS011;27537;57.134;-2.136;2022-09-09T10:57:37;17.37;;;4.20;;
41861;SDS011;27537;57.134;-2.136;2022-09-09T11:03:14;23.42;;;4.35;;
41861;SDS011;27537;57.134;-2.136;2022-09-09T11:06:01;21.23;;;4.15;;
41861;SDS011;27537;57.134;-2.136;2022-09-09T11:08:50;19.02;;;3.90;;
41861;SDS011;27537;57.134;-2.136;2022-09-09T11:14:21;15.52;;;3.33;;
41861;SDS011;27537;57.134;-2.136;2022-09-09T11:17:22;23.38;;;4.63;;
41861;SDS011;27537;57.134;-2.136;2022-09-09T11:20:10;23.85;;;4.05;;
41861;SDS011;27537;57.134;-2.136;2022-09-09T11:25:40;21.60;;;4.28;;
41861;SDS011;27537;57.134;-2.136;2022-09-09T11:40:24;23.30;;;5.13;;
41861;SDS011;27537;57.134;-2.136;2022-09-09T11:45:41;19.58;;;4.07;;
41861;SDS011;27537;57.134;-2.136;2022-09-09T11:51:25;20.48;;;3.92;;
41861;SDS011;27537;57.134;-2.136;2022-09-09T11:54:00;20.00;;;3.78;;
41861;SDS011;27537;57.134;-2.136;2022-09-09T11:57:00;21.92;;;4.00;;
41861;SDS011;27537;57.134;-2.136;2022-09-09T11:59:31;19.38;;;3.90;;
41861;SDS011;27537;57.134;-2.136;2022-09-09T12:02:14;19.42;;;3.47;;
41861;SDS011;27537;57.134;-2.136;2022-09-09T12:04:54;27.40;;;4.78;;
41861;SDS011;27537;57.134;-2.136;2022-09-09T12:07:41;17.35;;;3.85;;
41861;SDS011;27537;57.134;-2.136;2022-09-09T12:10:35;14.77;;;3.50;;
41861;SDS011;27537;57.134;-2.136;2022-09-09T12:13:21;20.25;;;4.20;;
41861;SDS011;27537;57.134;-2.136;2022-09-09T12:18:33;20.67;;;3.47;;
41861;SDS011;27537;57.134;-2.136;2022-09-09T12:21:29;13.52;;;2.97;;
41861;SDS011;27537;57.134;-2.136;2022-09-09T12:24:25;21.15;;;4.03;;
41861;SDS011;27537;57.134;-2.136;2022-09-09T12:29:47;16.80;;;3.08;;
41861;SDS011;27537;57.134;-2.136;2022-09-09T12:32:26;16.05;;;4.35;;
41861;SDS011;27537;57.134;-2.136;2022-09-09T12:45:26;13.18;;;3.33;;
41861;SDS011;27537;57.134;-2.136;2022-09-09T12:48:03;17.50;;;3.83;;
41861;SDS011;27537;57.134;-2.136;2022-09-09T12:50:35;18.85;;;3.20;;
41861;SDS011;27537;57.134;-2.136;2022-09-09T12:53:08;14.57;;;3.25;;
41861;SDS011;27537;57.134;-2.136;2022-09-09T12:55:48;15.60;;;2.90;;
41861;SDS011;27537;57.134;-2.136;2022-09-09T12:58:18;13.18;;;2.42;;
41861;SDS011;27537;57.134;-2.136;2022-09-09T13:00:53;17.40;;;2.92;;
41861;SDS011;27537;57.134;-2.136;2022-09-09T13:03:25;12.63;;;2.72;;
41861;SDS011;27537;57.134;-2.136;2022-09-09T13:05:53;18.88;;;3.90;;
41861;SDS011;27537;57.134;-2.136;2022-09-09T13:08:26;16.42;;;2.92;;
41861;SDS011;27537;57.134;-2.136;2022-09-09T13:10:58;14.90;;;3.28;;
41861;SDS011;27537;57.134;-2.136;2022-09-09T13:13:31;17.50;;;3.25;;
41861;SDS011;27537;57.134;-2.136;2022-09-09T13:16:04;14.85;;;3.22;;
41861;SDS011;27537;57.134;-2.136;2022-09-09T13:18:35;14.40;;;3.42;;
41861;SDS011;27537;57.134;-2.136;2022-09-09T13:21:06;14.77;;;3.28;;
41861;SDS011;27537;57.134;-2.136;2022-09-09T13:23:33;15.20;;;3.45;;
41861;SDS011;27537;57.134;-2.136;2022-09-09T13:26:20;20.02;;;3.55;;
41861;SDS011;27537;57.134;-2.136;2022-09-09T13:28:50;18.52;;;3.25;;
41861;SDS011;27537;57.134;-2.136;2022-09-09T13:31:22;16.75;;;4.22;;
41861;SDS011;27537;57.134;-2.136;2022-09-09T13:36:31;14.68;;;3.80;;
41861;SDS011;27537;57.134;-2.136;2022-09-09T13:39:02;14.60;;;2.83;;
41861;SDS011;27537;57.134;-2.136;2022-09-09T13:41:34;10.90;;;2.55;;
41861;SDS011;27537;57.134;-2.136;2022-09-09T13:44:03;15.40;;;3.30;;
41861;SDS011;27537;57.134;-2.136;2022-09-09T13:46:34;19.90;;;3.75;;
41861;SDS011;27537;57.134;-2.136;2022-09-09T13:51:45;14.52;;;3.08;;
41861;SDS011;27537;57.134;-2.136;2022-09-09T13:54:18;19.63;;;3.85;;
41861;SDS011;27537;57.134;-2.136;2022-09-09T13:56:46;15.80;;;3.30;;
41861;SDS011;27537;57.134;-2.136;2022-09-09T13:59:14;16.20;;;3.17;;
41861;SDS011;27537;57.134;-2.136;2022-09-09T14:01:45;10.82;;;2.72;;
41861;SDS011;27537;57.134;-2.136;2022-09-09T14:04:13;17.27;;;2.83;;
41861;SDS011;27537;57.134;-2.136;2022-09-09T14:06:40;14.75;;;2.67;;
41861;SDS011;27537;57.134;-2.136;2022-09-09T14:09:10;14.52;;;2.90;;
41861;SDS011;27537;57.134;-2.136;2022-09-09T14:11:39;17.02;;;3.30;;
41861;SDS011;27537;57.134;-2.136;2022-09-09T14:14:08;16.45;;;3.05;;
41861;SDS011;27537;57.134;-2.136;2022-09-09T14:16:35;11.82;;;2.97;;
41861;SDS011;27537;57.134;-2.136;2022-09-09T14:19:03;14.70;;;2.63;;
41861;SDS011;27537;57.134;-2.136;2022-09-09T14:21:30;10.88;;;2.65;;
41861;SDS011;27537;57.134;-2.136;2022-09-09T14:24:03;16.73;;;3.05;;
41861;SDS011;27537;57.134;-2.136;2022-09-09T14:26:37;12.95;;;3.58;;
41861;SDS011;27537;57.134;-2.136;2022-09-09T14:29:04;15.48;;;2.60;;
41861;SDS011;27537;57.134;-2.136;2022-09-09T14:31:31;15.07;;;3.22;;
41861;SDS011;27537;57.134;-2.136;2022-09-09T14:34:00;12.48;;;3.00;;
41861;SDS011;27537;57.134;-2.136;2022-09-09T14:36:27;16.80;;;3.55;;
41861;SDS011;27537;57.134;-2.136;2022-09-09T14:38:58;15.30;;;2.78;;
41861;SDS011;27537;57.134;-2.136;2022-09-09T14:41:26;14.57;;;2.92;;
41861;SDS011;27537;57.134;-2.136;2022-09-09T14:43:53;11.85;;;2.67;;
41861;SDS011;27537;57.134;-2.136;2022-09-09T14:46:20;16.42;;;2.90;;
41861;SDS011;27537;57.134;-2.136;2022-09-09T14:48:49;16.73;;;3.05;;
41861;SDS011;27537;57.134;-2.136;2022-09-09T14:51:23;16.17;;;3.63;;
41861;SDS011;27537;57.134;-2.136;2022-09-09T14:53:52;22.73;;;3.53;;
41861;SDS011;27537;57.134;-2.136;2022-09-09T14:56:22;18.25;;;2.30;;
41861;SDS011;27537;57.134;-2.136;2022-09-09T14:58:55;16.13;;;3.47;;
41861;SDS011;27537;57.134;-2.136;2022-09-09T15:01:23;15.70;;;3.08;;
41861;SDS011;27537;57.134;-2.136;2022-09-09T15:03:58;13.73;;;2.92;;
41861;SDS011;27537;57.134;-2.136;2022-09-09T15:06:27;9.20;;;2.30;;
41861;SDS011;27537;57.134;-2.136;2022-09-09T15:08:56;14.25;;;3.00;;
41861;SDS011;27537;57.134;-2.136;2022-09-09T15:11:30;10.63;;;2.85;;
41861;SDS011;27537;57.134;-2.136;2022-09-09T15:14:01;10.02;;;2.30;;
41861;SDS011;27537;57.134;-2.136;2022-09-09T15:16:29;10.15;;;2.45;;
41861;SDS011;27537;57.134;-2.136;2022-09-09T15:18:57;13.00;;;2.25;;
41861;SDS011;27537;57.134;-2.136;2022-09-09T15:21:26;14.13;;;2.83;;
41861;SDS011;27537;57.134;-2.136;2022-09-09T15:23:54;12.43;;;2.65;;
41861;SDS011;27537;57.134;-2.136;2022-09-09T15:26:22;10.35;;;2.33;;
41861;SDS011;27537;57.134;-2.136;2022-09-09T15:28:49;15.02;;;3.00;;
41861;SDS011;27537;57.134;-2.136;2022-09-09T15:31:18;13.30;;;2.95;;
41861;SDS011;27537;57.134;-2.136;2022-09-09T15:33:50;14.02;;;3.30;;
41861;SDS011;27537;57.134;-2.136;2022-09-09T15:36:28;14.00;;;3.17;;
41861;SDS011;27537;57.134;-2.136;2022-09-09T15:38:59;12.27;;;2.58;;
41861;SDS011;27537;57.134;-2.136;2022-09-09T15:41:27;12.13;;;2.40;;
41861;SDS011;27537;57.134;-2.136;2022-09-09T15:43:55;12.73;;;3.10;;
41861;SDS011;27537;57.134;-2.136;2022-09-09T15:46:24;9.75;;;2.50;;
41861;SDS011;27537;57.134;-2.136;2022-09-09T15:48:57;16.60;;;2.70;;
41861;SDS011;27537;57.134;-2.136;2022-09-09T15:51:29;10.68;;;2.78;;
41861;SDS011;27537;57.134;-2.136;2022-09-09T15:54:08;16.00;;;3.20;;
41861;SDS011;27537;57.134;-2.136;2022-09-09T15:56:40;12.57;;;2.72;;
41861;SDS011;27537;57.134;-2.136;2022-09-09T15:59:07;20.38;;;3.85;;
41861;SDS011;27537;57.134;-2.136;2022-09-09T16:01:34;14.48;;;3.05;;
41861;SDS011;27537;57.134;-2.136;2022-09-09T16:04:02;14.30;;;3.20;;
41861;SDS011;27537;57.134;-2.136;2022-09-09T16:06:30;16.30;;;3.22;;
41861;SDS011;27537;57.134;-2.136;2022-09-09T16:08:57;13.43;;;2.83;;
41861;SDS011;27537;57.134;-2.136;2022-09-09T16:11:31;13.40;;;3.17;;
41861;SDS011;27537;57.134;-2.136;2022-09-09T16:14:00;15.68;;;3.28;;
41861;SDS011;27537;57.134;-2.136;2022-09-09T16:16:27;15.18;;;3.47;;
41861;SDS011;27537;57.134;-2.136;2022-09-09T16:18:56;12.32;;;2.88;;
41861;SDS011;27537;57.134;-2.136;2022-09-09T16:21:29;14.73;;;3.15;;
41861;SDS011;27537;57.134;-2.136;2022-09-09T16:26:25;21.63;;;3.92;;
41861;SDS011;27537;57.134;-2.136;2022-09-09T16:28:53;18.38;;;3.38;;
41861;SDS011;27537;57.134;-2.136;2022-09-09T16:31:21;26.85;;;5.22;;
41861;SDS011;27537;57.134;-2.136;2022-09-09T16:33:49;15.23;;;3.83;;
41861;SDS011;27537;57.134;-2.136;2022-09-09T16:36:21;19.38;;;5.35;;
41861;SDS011;27537;57.134;-2.136;2022-09-09T16:38:53;23.35;;;5.15;;
41861;SDS011;27537;57.134;-2.136;2022-09-09T16:41:21;24.92;;;4.25;;
41861;SDS011;27537;57.134;-2.136;2022-09-09T16:43:55;21.67;;;4.25;;
41861;SDS011;27537;57.134;-2.136;2022-09-09T16:46:23;19.38;;;3.78;;
41861;SDS011;27537;57.134;-2.136;2022-09-09T16:48:51;29.88;;;4.80;;
41861;SDS011;27537;57.134;-2.136;2022-09-09T16:53:47;22.65;;;4.47;;
41861;SDS011;27537;57.134;-2.136;2022-09-09T16:56:15;27.45;;;5.13;;
41861;SDS011;27537;57.134;-2.136;2022-09-09T16:58:49;29.90;;;5.72;;
41861;SDS011;27537;57.134;-2.136;2022-09-09T17:01:17;21.88;;;4.97;;
41861;SDS011;27537;57.134;-2.136;2022-09-09T17:03:44;18.20;;;4.32;;
41861;SDS011;27537;57.134;-2.136;2022-09-09T17:06:12;20.67;;;4.38;;
41861;SDS011;27537;57.134;-2.136;2022-09-09T17:08:40;24.73;;;4.43;;
41861;SDS011;27537;57.134;-2.136;2022-09-09T17:11:12;21.13;;;4.93;;
41861;SDS011;27537;57.134;-2.136;2022-09-09T17:13:42;24.63;;;5.25;;
41861;SDS011;27537;57.134;-2.136;2022-09-09T17:16:10;20.67;;;4.50;;
41861;SDS011;27537;57.134;-2.136;2022-09-09T17:18:38;22.17;;;5.43;;
41861;SDS011;27537;57.134;-2.136;2022-09-09T17:21:09;20.40;;;5.05;;
41861;SDS011;27537;57.134;-2.136;2022-09-09T17:23:39;20.45;;;4.97;;
41861;SDS011;27537;57.134;-2.136;2022-09-09T17:26:08;22.83;;;4.70;;
41861;SDS011;27537;57.134;-2.136;2022-09-09T17:28:37;25.52;;;4.45;;
41861;SDS011;27537;57.134;-2.136;2022-09-09T17:31:06;28.08;;;4.90;;
41861;SDS011;27537;57.134;-2.136;2022-09-09T17:33:34;17.73;;;3.97;;
41861;SDS011;27537;57.134;-2.136;2022-09-09T17:36:07;31.25;;;5.13;;
41861;SDS011;27537;57.134;-2.136;2022-09-09T17:38:40;22.80;;;4.15;;
41861;SDS011;27537;57.134;-2.136;2022-09-09T17:41:13;14.15;;;3.70;;
41861;SDS011;27537;57.134;-2.136;2022-09-09T17:43:50;17.10;;;3.63;;
41861;SDS011;27537;57.134;-2.136;2022-09-09T17:46:19;15.82;;;3.10;;
41861;SDS011;27537;57.134;-2.136;2022-09-09T17:48:49;14.93;;;3.00;;